Time;durP1;ratioP1;P1;durP2;ratioP2;P2;SDS_P1;SDS_P2;PMS_P1;PMS_P2;Temp;Humidity;BMP_temperature;BMP_pressure;BME280_temperature;BME280_humidity;BME280_pressure;Samples;Min_cycle;Max_cycle;Signal;HPM_P1;HPM_P2
2024/01/27 00:01:39;;;;;;;4.83;2.90;;;;;;;;;;6151809;23;20428;-71
2024/01/27 00:04:05;;;;;;;2.57;2.40;;;;;;;;;;6152946;23;20683;-71
2024/01/27 00:06:31;;;;;;;2.30;2.20;;;;;;;;;;6151426;23;20365;-71
2024/01/27 00:08:57;;;;;;;2.77;2.50;;;;;;;;;;6152200;23;20391;-71
2024/01/27 00:11:26;;;;;;;4.63;2.37;;;;;;;;;;6152801;23;20373;-71
2024/01/27 00:13:52;;;;;;;9.27;3.90;;;;;;;;;;6152147;23;20373;-71
2024/01/27 00:16:18;;;;;;;3.50;3.20;;;;;;;;;;6151712;23;20893;-72
2024/01/27 00:18:44;;;;;;;3.00;2.87;;;;;;;;;;6152065;23;20380;-72
2024/01/27 00:21:10;;;;;;;3.80;3.50;;;;;;;;;;6125956;23;20448;-70
2024/01/27 00:23:36;;;;;;;4.20;3.80;;;;;;;;;;6152182;23;20384;-71
2024/01/27 00:26:02;;;;;;;2.93;2.20;;;;;;;;;;6152434;23;20377;-71
2024/01/27 00:28:28;;;;;;;3.07;2.90;;;;;;;;;;6152345;23;20400;-72
2024/01/27 00:30:54;;;;;;;2.23;2.13;;;;;;;;;;6151671;23;20543;-70
2024/01/27 00:33:20;;;;;;;2.30;2.00;;;;;;;;;;6151663;23;20369;-70
2024/01/27 00:35:46;;;;;;;2.57;2.37;;;;;;;;;;6151999;23;20497;-70
2024/01/27 00:38:12;;;;;;;2.50;2.30;;;;;;;;;;6152587;23;20752;-70
2024/01/27 00:40:38;;;;;;;3.07;2.97;;;;;;;;;;6151900;23;21053;-70
2024/01/27 00:43:04;;;;;;;2.13;2.13;;;;;;;;;;6152549;23;20389;-70
2024/01/27 00:45:30;;;;;;;2.30;2.10;;;;;;;;;;6151502;23;20404;-71
2024/01/27 00:47:56;;;;;;;2.70;2.50;;;;;;;;;;6152850;23;20377;-70
2024/01/27 00:50:22;;;;;;;2.20;2.20;;;;;;;;;;6128082;23;20392;-71
2024/01/27 00:52:49;;;;;;;1.93;1.93;;;;;;;;;;6154271;23;20417;-72
2024/01/27 00:55:15;;;;;;;3.00;2.90;;;;;;;;;;6128056;23;20507;-71
2024/01/27 00:57:41;;;;;;;7.13;2.87;;;;;;;;;;6153757;23;20475;-70
2024/01/27 01:00:07;;;;;;;6.70;2.53;;;;;;;;;;6127024;23;20427;-70
2024/01/27 01:02:33;;;;;;;2.87;2.73;;;;;;;;;;6154308;23;20432;-71
2024/01/27 01:04:59;;;;;;;3.27;3.00;;;;;;;;;;6154179;23;20851;-71
2024/01/27 01:07:25;;;;;;;2.80;2.70;;;;;;;;;;6153257;23;20384;-71
2024/01/27 01:09:51;;;;;;;2.50;2.40;;;;;;;;;;6154294;23;20424;-71
2024/01/27 01:12:17;;;;;;;2.10;2.00;;;;;;;;;;6154153;23;20373;-71
2024/01/27 01:14:44;;;;;;;2.77;2.57;;;;;;;;;;6154378;23;20377;-70
2024/01/27 01:17:10;;;;;;;2.30;2.30;;;;;;;;;;6127460;23;20397;-70
2024/01/27 01:19:39;;;;;;;3.23;2.40;;;;;;;;;;6153434;23;21068;-71
2024/01/27 01:22:05;;;;;;;2.10;2.00;;;;;;;;;;6154161;23;20470;-70
2024/01/27 01:24:31;;;;;;;2.63;2.43;;;;;;;;;;6154289;23;20381;-70
2024/01/27 01:26:57;;;;;;;6.37;5.13;;;;;;;;;;6154200;23;20930;-70
2024/01/27 01:29:23;;;;;;;7.43;3.90;;;;;;;;;;6153685;23;20369;-70
2024/01/27 01:31:49;;;;;;;13.07;7.13;;;;;;;;;;6153981;23;20732;-70
2024/01/27 01:34:15;;;;;;;9.07;6.60;;;;;;;;;;6154781;23;20415;-71
2024/01/27 01:36:42;;;;;;;3.30;3.10;;;;;;;;;;6153697;23;20396;-70
2024/01/27 01:39:08;;;;;;;2.73;2.67;;;;;;;;;;6154216;23;20894;-70
2024/01/27 01:41:34;;;;;;;2.40;2.30;;;;;;;;;;6153819;23;20465;-71
2024/01/27 01:44:00;;;;;;;2.33;2.23;;;;;;;;;;6153607;23;20369;-71
2024/01/27 01:46:26;;;;;;;2.10;2.00;;;;;;;;;;6153419;23;20381;-71
2024/01/27 01:48:52;;;;;;;2.23;2.13;;;;;;;;;;6153937;23;20373;-71
2024/01/27 01:51:18;;;;;;;1.80;1.80;;;;;;;;;;6153653;23;20464;-71
2024/01/27 01:53:46;;;;;;;6.63;1.93;;;;;;;;;;6127763;23;20494;-70
2024/01/27 01:56:14;;;;;;;2.07;1.97;;;;;;;;;;6153616;23;20381;-71
2024/01/27 01:58:40;;;;;;;1.47;1.47;;;;;;;;;;6153590;23;20424;-71
2024/01/27 02:01:06;;;;;;;1.70;1.57;;;;;;;;;;6153480;23;20423;-71
2024/01/27 02:03:32;;;;;;;2.20;2.10;;;;;;;;;;6153472;23;20464;-71
2024/01/27 02:05:58;;;;;;;2.93;2.83;;;;;;;;;;6126652;23;20411;-71
2024/01/27 02:08:24;;;;;;;2.47;2.37;;;;;;;;;;6154391;23;20385;-71
2024/01/27 02:10:50;;;;;;;1.97;1.97;;;;;;;;;;6153716;23;20874;-71
2024/01/27 02:13:20;;;;;;;2.07;1.97;;;;;;;;;;6153464;23;20381;-70
2024/01/27 02:15:46;;;;;;;1.90;1.80;;;;;;;;;;6126785;23;20871;-70
2024/01/27 02:18:12;;;;;;;1.90;1.80;;;;;;;;;;6153705;23;20389;-71
2024/01/27 02:20:38;;;;;;;2.10;1.50;;;;;;;;;;6153578;23;20416;-70
2024/01/27 02:23:04;;;;;;;3.07;1.30;;;;;;;;;;6153524;23;20777;-70
2024/01/27 02:25:31;;;;;;;2.27;1.93;;;;;;;;;;6152583;23;20383;-70
2024/01/27 02:27:57;;;;;;;1.47;1.47;;;;;;;;;;6153542;23;20729;-71
2024/01/27 02:30:23;;;;;;;1.50;1.40;;;;;;;;;;6153641;23;20456;-70
2024/01/27 02:32:49;;;;;;;2.00;1.83;;;;;;;;;;6153114;23;20475;-70
2024/01/27 02:35:16;;;;;;;1.97;1.60;;;;;;;;;;6152545;23;20459;-70
2024/01/27 02:37:42;;;;;;;7.23;1.60;;;;;;;;;;6153420;23;20416;-71
2024/01/27 02:40:09;;;;;;;1.23;1.13;;;;;;;;;;6153323;23;20828;-70
2024/01/27 02:42:35;;;;;;;4.57;1.53;;;;;;;;;;6152853;23;20882;-71
2024/01/27 02:45:02;;;;;;;1.87;1.77;;;;;;;;;;6153719;23;20373;-71
2024/01/27 02:47:28;;;;;;;1.60;1.50;;;;;;;;;;6152744;23;20381;-71
2024/01/27 02:49:54;;;;;;;3.43;1.50;;;;;;;;;;6152585;23;20381;-71
2024/01/27 02:52:20;;;;;;;2.10;1.83;;;;;;;;;;6152606;23;20380;-71
2024/01/27 02:54:46;;;;;;;2.10;1.30;;;;;;;;;;6153103;23;20377;-71
2024/01/27 02:57:12;;;;;;;1.47;1.37;;;;;;;;;;6152261;23;20377;-70
2024/01/27 02:59:39;;;;;;;1.50;1.40;;;;;;;;;;6152059;23;20451;-71
2024/01/27 03:02:08;;;;;;;1.50;1.50;;;;;;;;;;6152100;23;20443;-71
2024/01/27 03:04:34;;;;;;;3.07;1.80;;;;;;;;;;6152673;23;20400;-70
2024/01/27 03:07:00;;;;;;;1.27;1.27;;;;;;;;;;6126205;23;20872;-70
2024/01/27 03:09:26;;;;;;;1.87;1.77;;;;;;;;;;6153107;23;20389;-70
2024/01/27 03:11:52;;;;;;;2.00;1.83;;;;;;;;;;6152225;23;20878;-72
2024/01/27 03:14:18;;;;;;;1.60;1.50;;;;;;;;;;6152823;23;20373;-71
2024/01/27 03:16:47;;;;;;;1.40;1.30;;;;;;;;;;6152700;23;20385;-71
2024/01/27 03:19:13;;;;;;;4.53;1.20;;;;;;;;;;6152891;23;20381;-71
2024/01/27 03:21:39;;;;;;;1.90;1.40;;;;;;;;;;6125838;23;20828;-70
2024/01/27 03:24:05;;;;;;;1.90;1.47;;;;;;;;;;6153133;23;20485;-71
2024/01/27 03:26:31;;;;;;;3.50;1.40;;;;;;;;;;6152581;23;20885;-71
2024/01/27 03:28:57;;;;;;;6.80;1.97;;;;;;;;;;6126469;23;20385;-71
2024/01/27 03:31:23;;;;;;;1.50;1.50;;;;;;;;;;6152832;23;20373;-71
2024/01/27 03:33:49;;;;;;;1.50;1.40;;;;;;;;;;6151963;23;20381;-71
2024/01/27 03:36:15;;;;;;;1.20;1.10;;;;;;;;;;6125525;23;20428;-70
2024/01/27 03:38:42;;;;;;;1.33;1.33;;;;;;;;;;6152109;23;20460;-71
2024/01/27 03:41:09;;;;;;;1.20;1.20;;;;;;;;;;6152625;23;20990;-71
2024/01/27 03:43:35;;;;;;;1.60;1.60;;;;;;;;;;6152578;23;20409;-70
2024/01/27 03:46:02;;;;;;;1.20;1.20;;;;;;;;;;6152163;23;20385;-71
2024/01/27 03:48:29;;;;;;;3.83;1.10;;;;;;;;;;6152501;23;20464;-70
2024/01/27 03:50:55;;;;;;;2.30;1.40;;;;;;;;;;6151626;23;20381;-70
2024/01/27 03:53:21;;;;;;;1.20;1.07;;;;;;;;;;6152001;23;20866;-70
2024/01/27 03:55:47;;;;;;;2.03;1.93;;;;;;;;;;6151735;23;20381;-70
2024/01/27 03:58:13;;;;;;;6.43;1.20;;;;;;;;;;6126090;23;20763;-70
2024/01/27 04:00:39;;;;;;;2.30;1.13;;;;;;;;;;6151780;23;20790;-71
2024/01/27 04:03:05;;;;;;;2.50;1.40;;;;;;;;;;6126017;23;20428;-71
2024/01/27 04:05:31;;;;;;;1.00;1.00;;;;;;;;;;6125349;23;20393;-71
2024/01/27 04:07:57;;;;;;;0.97;0.93;;;;;;;;;;6153126;23;20411;-71
2024/01/27 04:10:23;;;;;;;0.87;0.87;;;;;;;;;;6152834;23;20435;-71
2024/01/27 04:12:49;;;;;;;1.10;1.07;;;;;;;;;;6151929;23;20392;-71
2024/01/27 04:15:15;;;;;;;2.87;1.30;;;;;;;;;;6126025;23;20439;-72
2024/01/27 04:17:42;;;;;;;1.13;1.13;;;;;;;;;;6151604;23;20415;-71
2024/01/27 04:20:08;;;;;;;1.10;1.10;;;;;;;;;;6152153;23;20763;-71
2024/01/27 04:22:35;;;;;;;1.60;1.50;;;;;;;;;;6124267;23;20451;-71
2024/01/27 04:25:01;;;;;;;1.43;0.80;;;;;;;;;;6126466;23;20400;-70
2024/01/27 04:27:30;;;;;;;0.80;0.80;;;;;;;;;;6151734;23;20446;-71
2024/01/27 04:29:56;;;;;;;0.77;0.77;;;;;;;;;;6126175;23;20472;-71
2024/01/27 04:32:23;;;;;;;1.13;1.13;;;;;;;;;;6151552;23;20385;-71
2024/01/27 04:34:49;;;;;;;0.77;0.77;;;;;;;;;;6126183;23;20475;-71
2024/01/27 04:37:15;;;;;;;1.80;1.80;;;;;;;;;;6151453;23;20732;-71
2024/01/27 04:39:41;;;;;;;1.50;1.00;;;;;;;;;;6151454;23;20380;-71
2024/01/27 04:42:07;;;;;;;1.60;1.30;;;;;;;;;;6151902;23;20424;-70
2024/01/27 04:44:33;;;;;;;2.10;0.90;;;;;;;;;;6150011;23;20766;-70
2024/01/27 04:46:59;;;;;;;1.67;1.23;;;;;;;;;;6151715;23;20385;-70
2024/01/27 04:49:26;;;;;;;1.40;1.40;;;;;;;;;;6152294;23;20377;-70
2024/01/27 04:51:52;;;;;;;1.10;1.10;;;;;;;;;;6151401;23;20468;-71
2024/01/27 04:54:18;;;;;;;1.47;0.93;;;;;;;;;;6151897;23;20456;-70
2024/01/27 04:56:44;;;;;;;0.87;0.87;;;;;;;;;;6152058;23;20398;-71
2024/01/27 04:59:10;;;;;;;1.57;1.33;;;;;;;;;;6152689;23;20515;-71
2024/01/27 05:01:36;;;;;;;3.33;1.30;;;;;;;;;;6151300;23;20441;-71
2024/01/27 05:04:02;;;;;;;1.17;1.17;;;;;;;;;;6151876;23;20431;-70
2024/01/27 05:06:28;;;;;;;1.53;1.07;;;;;;;;;;6150903;23;20408;-71
2024/01/27 05:08:54;;;;;;;1.07;1.00;;;;;;;;;;6152738;23;20384;-70
2024/01/27 05:11:26;;;;;;;1.57;1.33;;;;;;;;;;6152159;23;20823;-70
2024/01/27 05:13:52;;;;;;;1.60;1.60;;;;;;;;;;6152188;23;20385;-69
2024/01/27 05:16:18;;;;;;;1.20;1.20;;;;;;;;;;6151999;23;20408;-71
2024/01/27 05:18:44;;;;;;;1.37;1.37;;;;;;;;;;6151485;23;20377;-70
2024/01/27 05:21:10;;;;;;;2.27;2.17;;;;;;;;;;6151223;23;20452;-70
2024/01/27 05:23:36;;;;;;;2.17;2.07;;;;;;;;;;6151615;23;20377;-70
2024/01/27 05:26:02;;;;;;;1.30;1.30;;;;;;;;;;6151559;23;20385;-70
2024/01/27 05:28:28;;;;;;;2.47;1.83;;;;;;;;;;6125447;23;20389;-70
2024/01/27 05:30:54;;;;;;;1.00;1.00;;;;;;;;;;6152074;23;20388;-70
2024/01/27 05:33:20;;;;;;;2.40;1.60;;;;;;;;;;6151953;23;20376;-70
2024/01/27 05:35:46;;;;;;;1.83;1.70;;;;;;;;;;6151980;23;20408;-70
2024/01/27 05:38:12;;;;;;;1.30;1.30;;;;;;;;;;6153547;23;20392;-70
2024/01/27 05:40:38;;;;;;;2.40;1.30;;;;;;;;;;6153370;23;20420;-70
2024/01/27 05:43:04;;;;;;;1.10;1.10;;;;;;;;;;6152952;23;20380;-70
2024/01/27 05:45:31;;;;;;;1.40;1.30;;;;;;;;;;6152324;23;20428;-71
2024/01/27 05:47:57;;;;;;;2.77;1.10;;;;;;;;;;6153740;23;20384;-70
2024/01/27 05:50:23;;;;;;;1.40;1.40;;;;;;;;;;6153563;23;20369;-70
2024/01/27 05:52:49;;;;;;;2.80;1.30;;;;;;;;;;6153616;23;20381;-70
2024/01/27 05:55:16;;;;;;;1.30;1.30;;;;;;;;;;6153180;23;21175;-70
2024/01/27 05:57:42;;;;;;;1.10;1.10;;;;;;;;;;6153057;23;20365;-70
2024/01/27 06:00:09;;;;;;;0.97;0.97;;;;;;;;;;6153559;23;20392;-71
2024/01/27 06:02:36;;;;;;;3.33;1.07;;;;;;;;;;6153657;23;20455;-70
2024/01/27 06:05:02;;;;;;;2.77;1.07;;;;;;;;;;6153285;23;20836;-70
2024/01/27 06:07:28;;;;;;;1.57;1.47;;;;;;;;;;6153284;23;20897;-70
2024/01/27 06:09:54;;;;;;;0.80;0.80;;;;;;;;;;6153635;23;20463;-70
2024/01/27 06:12:20;;;;;;;1.87;1.00;;;;;;;;;;6152563;23;20401;-70
2024/01/27 06:14:46;;;;;;;1.10;1.10;;;;;;;;;;6127400;23;20448;-70
2024/01/27 06:17:14;;;;;;;1.57;1.57;;;;;;;;;;6153513;23;20739;-71
2024/01/27 06:19:40;;;;;;;1.10;1.10;;;;;;;;;;6153567;23;20443;-69
2024/01/27 06:22:06;;;;;;;1.37;1.37;;;;;;;;;;6152808;23;20448;-69
2024/01/27 06:24:32;;;;;;;1.77;1.67;;;;;;;;;;6153665;23;20381;-70
2024/01/27 06:26:58;;;;;;;1.90;1.90;;;;;;;;;;6152869;23;20393;-71
2024/01/27 06:29:26;;;;;;;1.10;1.10;;;;;;;;;;6152765;23;20412;-71
2024/01/27 06:31:53;;;;;;;1.30;1.30;;;;;;;;;;6152865;23;20499;-71
2024/01/27 06:34:19;;;;;;;1.37;1.37;;;;;;;;;;6153637;23;20700;-71
2024/01/27 06:36:45;;;;;;;2.73;2.73;;;;;;;;;;6152762;23;20387;-71
2024/01/27 06:39:11;;;;;;;2.53;2.53;;;;;;;;;;6153643;23;20387;-70
2024/01/27 06:41:37;;;;;;;3.00;2.90;;;;;;;;;;6152696;23;20437;-71
2024/01/27 06:44:03;;;;;;;2.83;2.83;;;;;;;;;;6153758;23;20393;-71
2024/01/27 06:46:29;;;;;;;2.50;2.50;;;;;;;;;;6152930;23;20508;-71
2024/01/27 06:48:55;;;;;;;3.37;3.10;;;;;;;;;;6153033;23;20416;-70
2024/01/27 06:51:21;;;;;;;2.33;2.33;;;;;;;;;;6151678;23;20380;-71
2024/01/27 06:53:48;;;;;;;3.47;2.47;;;;;;;;;;6152630;23;21268;-71
2024/01/27 06:56:14;;;;;;;2.47;2.37;;;;;;;;;;6152979;23;20456;-71
2024/01/27 06:58:40;;;;;;;1.93;1.90;;;;;;;;;;6152815;23;20993;-71
2024/01/27 07:01:07;;;;;;;1.60;1.60;;;;;;;;;;6153440;23;20460;-71
2024/01/27 07:03:33;;;;;;;1.80;1.70;;;;;;;;;;6152188;23;20400;-70
2024/01/27 07:06:02;;;;;;;1.93;1.83;;;;;;;;;;6151795;23;20380;-71
2024/01/27 07:08:29;;;;;;;1.93;1.83;;;;;;;;;;6152266;23;20377;-70
2024/01/27 07:10:55;;;;;;;4.77;1.50;;;;;;;;;;6150426;23;20385;-70
2024/01/27 07:13:21;;;;;;;3.67;2.10;;;;;;;;;;6150800;23;21006;-70
2024/01/27 07:15:47;;;;;;;2.10;1.97;;;;;;;;;;6151357;23;20391;-71
2024/01/27 07:18:14;;;;;;;2.20;2.10;;;;;;;;;;6151432;23;20369;-71
2024/01/27 07:20:40;;;;;;;1.80;1.80;;;;;;;;;;6126236;23;20814;-70
2024/01/27 07:23:07;;;;;;;3.10;2.93;;;;;;;;;;6126676;23;20393;-70
2024/01/27 07:25:36;;;;;;;1.97;1.97;;;;;;;;;;6141783;23;20381;-69
2024/01/27 07:28:02;;;;;;;2.70;2.50;;;;;;;;;;6123584;23;20404;-71
2024/01/27 07:30:28;;;;;;;2.60;2.50;;;;;;;;;;6150676;23;20373;-70
2024/01/27 07:32:54;;;;;;;2.60;2.40;;;;;;;;;;6151514;23;20400;-70
2024/01/27 07:35:20;;;;;;;2.37;2.37;;;;;;;;;;6150655;23;20770;-71
2024/01/27 07:37:46;;;;;;;2.97;2.70;;;;;;;;;;6150997;23;20412;-70
2024/01/27 07:40:13;;;;;;;2.43;2.27;;;;;;;;;;6151584;23;20388;-69
2024/01/27 07:42:38;;;;;;;1.70;1.60;;;;;;;;;;6152286;23;20909;-70
2024/01/27 07:45:05;;;;;;;2.13;2.03;;;;;;;;;;6152182;23;20452;-69
2024/01/27 07:47:31;;;;;;;2.73;2.63;;;;;;;;;;6150911;23;20392;-70
2024/01/27 07:49:57;;;;;;;1.63;1.63;;;;;;;;;;6149785;23;20456;-69
2024/01/27 07:52:23;;;;;;;5.33;2.10;;;;;;;;;;6152325;23;20380;-70
2024/01/27 07:54:49;;;;;;;1.83;1.83;;;;;;;;;;6126651;23;20388;-69
2024/01/27 07:57:15;;;;;;;2.43;2.33;;;;;;;;;;6151601;23;20420;-70
2024/01/27 07:59:41;;;;;;;3.93;3.57;;;;;;;;;;6126854;23;20436;-69
2024/01/27 08:02:07;;;;;;;6.17;5.57;;;;;;;;;;6153043;23;20443;-69
2024/01/27 08:04:32;;;;;;;6.30;3.87;;;;;;;;;;6152526;23;20396;-69
2024/01/27 08:06:58;;;;;;;95.10;28.03;;;;;;;;;;6152045;23;20373;-69
2024/01/27 08:09:25;;;;;;;167.73;45.10;;;;;;;;;;6152911;23;20696;-69
2024/01/27 08:11:54;;;;;;;15.63;7.40;;;;;;;;;;6152871;23;20827;-69
2024/01/27 08:14:20;;;;;;;1.97;1.93;;;;;;;;;;6126565;23;20428;-69
2024/01/27 08:16:46;;;;;;;2.70;2.50;;;;;;;;;;6152468;23;20400;-69
2024/01/27 08:19:12;;;;;;;1.80;1.80;;;;;;;;;;6152853;23;20868;-69
2024/01/27 08:21:38;;;;;;;2.03;1.57;;;;;;;;;;6152714;23;20443;-69
2024/01/27 08:24:05;;;;;;;2.40;2.23;;;;;;;;;;6152955;23;20385;-69
2024/01/27 08:26:31;;;;;;;1.83;1.73;;;;;;;;;;6152289;23;20443;-69
2024/01/27 08:28:58;;;;;;;2.17;2.17;;;;;;;;;;6152499;23;20377;-69
2024/01/27 08:31:24;;;;;;;5.37;4.87;;;;;;;;;;6127008;23;20392;-69
2024/01/27 08:33:50;;;;;;;4.87;4.53;;;;;;;;;;6152067;23;20419;-69
2024/01/27 08:36:16;;;;;;;4.07;3.47;;;;;;;;;;6151612;23;20481;-70
2024/01/27 08:38:42;;;;;;;4.07;3.77;;;;;;;;;;6153175;23;20381;-70
2024/01/27 08:41:08;;;;;;;9.37;4.77;;;;;;;;;;6153211;23;20439;-69
2024/01/27 08:43:34;;;;;;;5.27;4.77;;;;;;;;;;6152412;23;20419;-69
2024/01/27 08:46:00;;;;;;;5.00;4.60;;;;;;;;;;6125675;23;20409;-69
2024/01/27 08:48:26;;;;;;;5.40;5.10;;;;;;;;;;6152174;23;20381;-69
2024/01/27 08:50:52;;;;;;;6.83;6.20;;;;;;;;;;6152126;23;20385;-69
2024/01/27 08:53:18;;;;;;;16.83;8.30;;;;;;;;;;6125289;23;20397;-69
2024/01/27 08:55:44;;;;;;;20.37;12.37;;;;;;;;;;6125076;23;20459;-69
2024/01/27 08:58:10;;;;;;;18.93;12.03;;;;;;;;;;6152557;23;20435;-69
2024/01/27 09:00:36;;;;;;;15.87;10.53;;;;;;;;;;6151856;23;20381;-69
2024/01/27 09:03:03;;;;;;;12.17;9.77;;;;;;;;;;6152209;23;20396;-70
2024/01/27 09:05:29;;;;;;;11.70;9.40;;;;;;;;;;6151359;23;20754;-70
2024/01/27 09:07:55;;;;;;;34.03;20.90;;;;;;;;;;6152496;23;20377;-70
2024/01/27 09:10:21;;;;;;;19.83;12.63;;;;;;;;;;6127491;23;20719;-69
2024/01/27 09:12:47;;;;;;;11.90;9.47;;;;;;;;;;6155056;23;20878;-69
2024/01/27 09:15:13;;;;;;;5.80;5.40;;;;;;;;;;6127478;23;20388;-69
2024/01/27 09:17:39;;;;;;;4.60;4.20;;;;;;;;;;6154424;23;20881;-69
2024/01/27 09:20:06;;;;;;;4.27;4.07;;;;;;;;;;6154327;23;20377;-69
2024/01/27 09:22:32;;;;;;;6.13;5.57;;;;;;;;;;6128468;23;20483;-70
2024/01/27 09:24:58;;;;;;;7.23;5.10;;;;;;;;;;6154606;23;20369;-69
2024/01/27 09:27:24;;;;;;;10.83;7.77;;;;;;;;;;6154277;23;20381;-69
2024/01/27 09:29:49;;;;;;;5.17;4.77;;;;;;;;;;6153969;23;20823;-70
2024/01/27 09:32:15;;;;;;;7.77;4.50;;;;;;;;;;6153972;23;20882;-69
2024/01/27 09:34:41;;;;;;;3.87;3.57;;;;;;;;;;6154102;23;20405;-69
2024/01/27 09:37:07;;;;;;;3.80;3.50;;;;;;;;;;6153894;23;20876;-69
2024/01/27 09:39:33;;;;;;;3.30;2.90;;;;;;;;;;6154554;23;20399;-69
2024/01/27 09:42:01;;;;;;;3.37;2.00;;;;;;;;;;6128246;23;20752;-69
2024/01/27 09:44:27;;;;;;;7.18;3.30;;;;;;;;;;6152983;23;20855;-69
2024/01/27 09:46:54;;;;;;;4.57;2.30;;;;;;;;;;6154028;23;20244;-69
2024/01/27 09:49:20;;;;;;;2.13;2.03;;;;;;;;;;6153888;23;20384;-69
2024/01/27 09:51:46;;;;;;;2.07;1.97;;;;;;;;;;6154557;23;20479;-69
2024/01/27 09:54:12;;;;;;;2.50;2.10;;;;;;;;;;6128354;23;20407;-69
2024/01/27 09:56:38;;;;;;;9.33;2.90;;;;;;;;;;6153415;23;20871;-70
2024/01/27 09:59:05;;;;;;;2.13;2.03;;;;;;;;;;6127659;23;20440;-69
2024/01/27 10:01:32;;;;;;;3.07;2.33;;;;;;;;;;6127710;23;20530;-70
2024/01/27 10:03:58;;;;;;;10.63;2.57;;;;;;;;;;6152782;23;20681;-70
2024/01/27 10:06:25;;;;;;;4.50;3.23;;;;;;;;;;6153760;23;20994;-70
2024/01/27 10:08:55;;;;;;;2.47;2.37;;;;;;;;;;6154546;23;20467;-70
2024/01/27 10:11:22;;;;;;;2.90;2.50;;;;;;;;;;6127838;23;20447;-70
2024/01/27 10:13:59;;;;;;;2.47;2.37;;;;;;;;;;6154076;23;20381;-70
2024/01/27 10:16:25;;;;;;;2.93;2.53;;;;;;;;;;6153926;23;20857;-69
2024/01/27 10:19:04;;;;;;;3.47;3.17;;;;;;;;;;6128271;23;20393;-70
2024/01/27 10:21:30;;;;;;;9.37;2.43;;;;;;;;;;6153732;23;20787;-69
2024/01/27 10:23:56;;;;;;;2.23;2.03;;;;;;;;;;6154186;23;20388;-70
2024/01/27 10:26:22;;;;;;;5.07;2.03;;;;;;;;;;6153711;23;20702;-69
2024/01/27 10:28:57;;;;;;;2.20;2.00;;;;;;;;;;6153210;23;20400;-70
2024/01/27 10:31:27;;;;;;;11.17;2.50;;;;;;;;;;6153991;23;20387;-70
2024/01/27 10:33:53;;;;;;;6.10;3.00;;;;;;;;;;6153893;23;20753;-69
2024/01/27 10:36:19;;;;;;;7.47;2.20;;;;;;;;;;6152806;23;20757;-71
2024/01/27 10:38:45;;;;;;;3.00;2.77;;;;;;;;;;6153986;23;20675;-69
2024/01/27 10:41:11;;;;;;;5.33;2.53;;;;;;;;;;6153892;23;20464;-70
2024/01/27 10:43:38;;;;;;;4.60;2.67;;;;;;;;;;6153928;23;20380;-69
2024/01/27 10:46:08;;;;;;;3.10;2.20;;;;;;;;;;6149558;23;20374;-69
2024/01/27 10:48:37;;;;;;;3.70;2.50;;;;;;;;;;6152332;23;20397;-70
2024/01/27 10:51:10;;;;;;;5.40;1.83;;;;;;;;;;6152019;23;20455;-70
2024/01/27 10:53:37;;;;;;;1.73;1.73;;;;;;;;;;6153586;23;20444;-70
2024/01/27 10:56:09;;;;;;;2.47;2.20;;;;;;;;;;6151313;23;20381;-69
2024/01/27 10:58:41;;;;;;;5.03;2.63;;;;;;;;;;6153712;23;20441;-69
2024/01/27 11:01:11;;;;;;;2.73;2.43;;;;;;;;;;6152927;23;20412;-70
2024/01/27 11:03:41;;;;;;;6.03;2.60;;;;;;;;;;6126740;23;20401;-69
2024/01/27 11:06:07;;;;;;;4.70;3.77;;;;;;;;;;6152668;23;20398;-69
2024/01/27 11:08:38;;;;;;;2.67;2.47;;;;;;;;;;6153756;23;20413;-69
2024/01/27 11:11:04;;;;;;;5.80;2.70;;;;;;;;;;6153887;23;20448;-70
2024/01/27 11:13:31;;;;;;;4.57;3.87;;;;;;;;;;6153496;23;20380;-70
2024/01/27 11:15:58;;;;;;;2.23;2.13;;;;;;;;;;6151188;23;20377;-70
2024/01/27 11:18:24;;;;;;;7.53;2.73;;;;;;;;;;6153274;23;20711;-70
2024/01/27 11:20:53;;;;;;;4.33;2.00;;;;;;;;;;6153002;23;20420;-71
2024/01/27 11:23:19;;;;;;;3.33;2.30;;;;;;;;;;6152873;23;20389;-70
2024/01/27 11:25:45;;;;;;;3.60;2.63;;;;;;;;;;6153542;23;20381;-70
2024/01/27 11:28:13;;;;;;;4.43;3.53;;;;;;;;;;6152118;23;20439;-70
2024/01/27 11:30:40;;;;;;;4.30;3.13;;;;;;;;;;6152898;23;20369;-70
2024/01/27 11:33:06;;;;;;;2.47;2.37;;;;;;;;;;6151131;23;20906;-70
2024/01/27 11:35:32;;;;;;;2.47;2.27;;;;;;;;;;6151269;23;20428;-71
2024/01/27 11:37:58;;;;;;;3.90;2.30;;;;;;;;;;6154027;23;20436;-70
2024/01/27 11:40:24;;;;;;;2.00;1.90;;;;;;;;;;6153616;23;20718;-70
2024/01/27 11:42:57;;;;;;;1.97;1.87;;;;;;;;;;6152646;23;20491;-71
2024/01/27 11:45:23;;;;;;;1.90;1.60;;;;;;;;;;6152659;23;20373;-69
2024/01/27 11:47:49;;;;;;;3.47;1.50;;;;;;;;;;6152348;23;20459;-69
2024/01/27 11:50:17;;;;;;;6.03;1.40;;;;;;;;;;6153048;23;20377;-70
2024/01/27 11:52:43;;;;;;;5.80;1.37;;;;;;;;;;6153358;23;20381;-70
2024/01/27 11:55:09;;;;;;;4.10;2.10;;;;;;;;;;6152256;23;20436;-69
2024/01/27 11:57:35;;;;;;;1.60;1.50;;;;;;;;;;6152848;23;20381;-70
2024/01/27 12:00:01;;;;;;;5.83;1.77;;;;;;;;;;6126436;23;20488;-70
2024/01/27 12:02:27;;;;;;;2.70;2.60;;;;;;;;;;6152318;23;20828;-70
2024/01/27 12:04:53;;;;;;;4.90;1.50;;;;;;;;;;6152226;23;20384;-70
2024/01/27 12:07:20;;;;;;;4.43;2.10;;;;;;;;;;6151385;23;20385;-70
2024/01/27 12:09:46;;;;;;;5.00;2.27;;;;;;;;;;6153475;23;20161;-70
2024/01/27 12:12:16;;;;;;;11.30;2.10;;;;;;;;;;6153352;23;20396;-70
2024/01/27 12:14:46;;;;;;;5.70;2.80;;;;;;;;;;6153147;23;20412;-70
2024/01/27 12:17:12;;;;;;;2.03;1.80;;;;;;;;;;6151982;23;20921;-70
2024/01/27 12:19:39;;;;;;;7.63;1.70;;;;;;;;;;6151708;23;20373;-70
2024/01/27 12:22:06;;;;;;;2.50;2.07;;;;;;;;;;6152479;23;20451;-70
2024/01/27 12:24:32;;;;;;;1.70;1.60;;;;;;;;;;6125821;23;20930;-70
2024/01/27 12:26:58;;;;;;;5.17;1.67;;;;;;;;;;6150752;23;20400;-71
2024/01/27 12:29:24;;;;;;;4.87;2.53;;;;;;;;;;6150994;23;20831;-70
2024/01/27 12:31:50;;;;;;;2.73;2.53;;;;;;;;;;6151518;23;20393;-70
2024/01/27 12:34:16;;;;;;;3.53;2.20;;;;;;;;;;6151251;23;20468;-71
2024/01/27 12:36:43;;;;;;;8.43;2.47;;;;;;;;;;6150248;23;20469;-70
2024/01/27 12:39:10;;;;;;;2.83;2.23;;;;;;;;;;6151040;23;20435;-71
2024/01/27 12:41:35;;;;;;;2.60;2.40;;;;;;;;;;6151719;23;20432;-70
2024/01/27 12:44:02;;;;;;;3.73;2.83;;;;;;;;;;6151745;23;20896;-70
2024/01/27 12:46:31;;;;;;;2.17;2.03;;;;;;;;;;6151155;23;20859;-70
2024/01/27 12:48:57;;;;;;;5.03;2.27;;;;;;;;;;6151095;23;20446;-70
2024/01/27 12:51:24;;;;;;;3.30;2.37;;;;;;;;;;6151659;23;20471;-70
2024/01/27 12:53:50;;;;;;;5.20;1.77;;;;;;;;;;6125249;23;20395;-70
2024/01/27 12:56:16;;;;;;;12.50;2.97;;;;;;;;;;6151322;23;20376;-70
2024/01/27 12:58:42;;;;;;;2.00;2.00;;;;;;;;;;6151307;23;20508;-71
2024/01/27 13:01:09;;;;;;;2.60;2.40;;;;;;;;;;6123264;23;20424;-70
2024/01/27 13:03:35;;;;;;;7.40;2.37;;;;;;;;;;6150970;23;20421;-70
2024/01/27 13:06:02;;;;;;;3.23;2.87;;;;;;;;;;6150796;23;20370;-70
2024/01/27 13:08:28;;;;;;;8.00;2.87;;;;;;;;;;6151613;23;20439;-70
2024/01/27 13:10:54;;;;;;;3.13;2.47;;;;;;;;;;6151664;23;20840;-70
2024/01/27 13:13:20;;;;;;;3.83;2.03;;;;;;;;;;6151792;23;20380;-71
2024/01/27 13:15:46;;;;;;;3.33;2.30;;;;;;;;;;6152386;23;20381;-70
2024/01/27 13:18:12;;;;;;;2.50;1.70;;;;;;;;;;6151390;23;20695;-70
2024/01/27 13:20:40;;;;;;;6.70;1.97;;;;;;;;;;6151799;23;20458;-70
2024/01/27 13:23:06;;;;;;;4.30;2.53;;;;;;;;;;6152569;23;20397;-70
2024/01/27 13:25:32;;;;;;;3.10;2.27;;;;;;;;;;6151632;23;20380;-70
2024/01/27 13:27:58;;;;;;;5.50;2.17;;;;;;;;;;6150231;23;20607;-70
2024/01/27 13:30:25;;;;;;;3.50;2.30;;;;;;;;;;6151626;23;20373;-70
2024/01/27 13:32:51;;;;;;;6.23;4.93;;;;;;;;;;6150592;23;20411;-70
2024/01/27 13:35:17;;;;;;;2.83;2.53;;;;;;;;;;6148745;23;20385;-71
2024/01/27 13:37:43;;;;;;;3.00;1.77;;;;;;;;;;6123134;23;20475;-70
2024/01/27 13:40:09;;;;;;;2.83;1.73;;;;;;;;;;6152356;23;20381;-70
2024/01/27 13:42:36;;;;;;;3.60;1.47;;;;;;;;;;6152203;23;20556;-70
2024/01/27 13:45:02;;;;;;;1.80;1.40;;;;;;;;;;6151940;23;20925;-71
2024/01/27 13:47:28;;;;;;;2.50;2.40;;;;;;;;;;6150032;23;20408;-70
2024/01/27 13:49:54;;;;;;;3.10;1.83;;;;;;;;;;6150384;23;20377;-71
2024/01/27 13:52:20;;;;;;;1.93;1.73;;;;;;;;;;6152423;23;20381;-70
2024/01/27 13:54:46;;;;;;;3.33;2.00;;;;;;;;;;6126437;23;20404;-70
2024/01/27 13:57:12;;;;;;;9.00;2.60;;;;;;;;;;6153833;23;20389;-70
2024/01/27 13:59:38;;;;;;;1.50;1.40;;;;;;;;;;6154019;23;20868;-70
2024/01/27 14:02:04;;;;;;;7.07;4.70;;;;;;;;;;6153863;23;20439;-70
2024/01/27 14:04:30;;;;;;;2.00;1.83;;;;;;;;;;6153690;23;20395;-71
2024/01/27 14:06:56;;;;;;;1.83;1.63;;;;;;;;;;6154048;23;20381;-70
2024/01/27 14:09:23;;;;;;;9.70;1.73;;;;;;;;;;6154654;23;20493;-70
2024/01/27 14:11:49;;;;;;;1.33;1.20;;;;;;;;;;6125999;23;20476;-70
2024/01/27 14:14:15;;;;;;;2.23;2.03;;;;;;;;;;6153834;23;20373;-70
2024/01/27 14:16:43;;;;;;;2.80;1.57;;;;;;;;;;6153936;23;20717;-70
2024/01/27 14:19:09;;;;;;;3.60;2.27;;;;;;;;;;6153481;23;20381;-70
2024/01/27 14:21:36;;;;;;;5.93;1.97;;;;;;;;;;6153510;23;20542;-70
2024/01/27 14:24:05;;;;;;;9.63;4.10;;;;;;;;;;6127261;23;20400;-70
2024/01/27 14:26:31;;;;;;;4.40;2.30;;;;;;;;;;6153637;23;20765;-70
2024/01/27 14:28:58;;;;;;;7.13;1.73;;;;;;;;;;6127914;23;20447;-70
2024/01/27 14:31:24;;;;;;;1.47;1.33;;;;;;;;;;6154139;23;20393;-70
2024/01/27 14:33:50;;;;;;;2.43;2.20;;;;;;;;;;6153236;23;20396;-71
2024/01/27 14:36:16;;;;;;;6.23;2.20;;;;;;;;;;6127417;23;20867;-70
2024/01/27 14:38:42;;;;;;;1.70;1.53;;;;;;;;;;6154261;23;20401;-71